Time;durP1;ratioP1;P1;durP2;ratioP2;P2;SDS_P1;SDS_P2;PMS_P1;PMS_P2;Temp;Humidity;BMP_temperature;BMP_pressure;BME280_temperature;BME280_humidity;BME280_pressure;Samples;Min_cycle;Max_cycle;Signal;HPM_P1;HPM_P2
2023/02/06 00:00:29;;;;;;;6.10;3.90;;;;;;;-5.51;65.38;99756.94;7508847;23;20230;-57
2023/02/06 00:03:31;;;;;;;4.23;3.23;;;;;;;-5.33;65.37;99778.41;7506273;23;20663;-57
2023/02/06 00:06:33;;;;;;;6.57;3.67;;;;;;;-5.31;65.42;99778.34;7507682;23;20230;-57
2023/02/06 00:09:35;;;;;;;6.20;3.83;;;;;;;-5.36;65.24;99780.38;7508796;23;20214;-56
2023/02/06 00:12:37;;;;;;;6.57;3.80;;;;;;;-5.47;65.75;99779.22;7507603;23;20768;-58
2023/02/06 00:15:39;;;;;;;7.03;4.00;;;;;;;-5.51;66.15;99787.28;7507501;23;20289;-56
2023/02/06 00:18:42;;;;;;;7.73;4.07;;;;;;;-5.54;66.29;99783.09;7508333;23;20217;-58
2023/02/06 00:21:44;;;;;;;6.03;4.00;;;;;;;-5.50;66.37;99768.16;7508616;23;20222;-58
2023/02/06 00:24:46;;;;;;;4.50;3.50;;;;;;;-5.65;66.09;99769.88;7507845;23;20215;-57
2023/02/06 00:27:48;;;;;;;6.47;3.97;;;;;;;-5.42;66.03;99778.94;7505873;23;20233;-57
2023/02/06 00:30:50;;;;;;;6.10;4.10;;;;;;;-5.46;65.39;99780.06;7507735;23;20305;-55
2023/02/06 00:33:52;;;;;;;7.53;4.07;;;;;;;-5.53;65.84;99784.75;7508924;23;20226;-56
2023/02/06 00:36:54;;;;;;;6.17;4.10;;;;;;;-5.55;66.34;99788.38;7506152;23;20257;-58
2023/02/06 00:39:56;;;;;;;7.43;4.53;;;;;;;-5.58;66.23;99788.53;7506093;23;20651;-57
2023/02/06 00:42:58;;;;;;;7.77;4.20;;;;;;;-5.62;66.16;99793.06;7507780;23;20615;-57
2023/02/06 00:46:00;;;;;;;5.43;3.53;;;;;;;-5.60;66.33;99800.78;7507155;23;20242;-58
2023/02/06 00:49:02;;;;;;;11.23;5.40;;;;;;;-5.58;66.10;99797.16;7507377;23;20218;-58
2023/02/06 00:52:04;;;;;;;8.13;4.63;;;;;;;-5.61;65.92;99793.94;7507876;23;20693;-58
2023/02/06 00:55:07;;;;;;;7.07;4.57;;;;;;;-5.62;66.24;99811.22;7508033;23;20221;-57
2023/02/06 00:58:09;;;;;;;7.40;4.63;;;;;;;-5.80;66.33;99786.34;7506155;23;20662;-57
2023/02/06 01:01:11;;;;;;;6.90;4.37;;;;;;;-5.65;66.19;99806.22;7507571;23;20297;-58
2023/02/06 01:04:13;;;;;;;5.77;4.53;;;;;;;-5.68;66.00;99805.56;7507974;23;20241;-57
2023/02/06 01:07:15;;;;;;;8.17;4.60;;;;;;;-5.67;66.75;99812.41;7507151;23;20219;-58
2023/02/06 01:10:17;;;;;;;9.53;5.20;;;;;;;-5.62;66.21;99823.38;7506632;23;20218;-57
2023/02/06 01:13:19;;;;;;;25.17;10.50;;;;;;;-5.78;66.82;99824.25;7507373;23;20219;-58
2023/02/06 01:16:23;;;;;;;24.73;10.80;;;;;;;-5.72;66.43;99820.47;7507530;23;20220;-58
2023/02/06 01:19:26;;;;;;;15.20;8.33;;;;;;;-5.76;66.29;99819.00;7511861;23;20218;-55
2023/02/06 01:22:28;;;;;;;18.73;9.07;;;;;;;-5.81;66.37;99814.06;7508289;23;20224;-56
2023/02/06 01:25:31;;;;;;;14.60;6.87;;;;;;;-6.09;66.77;99773.25;7505276;23;20367;-54
2023/02/06 01:28:39;;;;;;;12.87;6.37;;;;;;;-5.87;66.61;99816.97;7503757;23;20210;-58
2023/02/06 01:31:42;;;;;;;10.57;5.10;;;;;;;-5.89;66.96;99807.59;7508213;23;20294;-57
2023/02/06 01:34:44;;;;;;;11.60;5.33;;;;;;;-5.82;67.13;99819.31;7508038;23;20221;-57
2023/02/06 01:37:46;;;;;;;8.47;4.90;;;;;;;-5.80;67.32;99801.91;7505413;23;20297;-56
2023/02/06 01:40:48;;;;;;;12.67;6.63;;;;;;;-5.80;66.96;99774.19;7506616;23;20238;-58
2023/02/06 01:44:20;;;;;;;16.07;7.60;;;;;;;-5.61;66.68;99806.91;7507214;23;20950;-58
2023/02/06 01:47:22;;;;;;;15.13;6.43;;;;;;;-5.66;66.22;99801.09;7507119;23;20238;-58
2023/02/06 01:50:25;;;;;;;11.57;6.87;;;;;;;-5.66;66.67;99794.19;7506072;23;20214;-56
2023/02/06 01:53:28;;;;;;;11.80;6.00;;;;;;;-5.87;66.32;99752.09;7506751;23;20273;-57
2023/02/06 01:56:35;;;;;;;11.77;5.50;;;;;;;-5.64;66.25;99781.94;7506478;23;20346;-57
2023/02/06 01:59:41;;;;;;;9.50;5.80;;;;;;;-5.64;65.95;99774.16;7502852;23;20410;-56
2023/02/06 02:02:47;;;;;;;9.17;5.40;;;;;;;-5.65;66.11;99771.66;7507667;23;20269;-58
2023/02/06 02:05:51;;;;;;;7.30;4.90;;;;;;;-5.67;66.10;99776.91;7506671;23;20693;-57
2023/02/06 02:08:55;;;;;;;9.00;5.07;;;;;;;-5.66;66.38;99783.81;7505876;23;20346;-58
2023/02/06 02:11:59;;;;;;;8.20;5.43;;;;;;;-5.58;66.35;99785.94;7506587;23;20742;-57
2023/02/06 02:15:03;;;;;;;9.67;4.97;;;;;;;-5.50;66.18;99781.16;7506141;23;20202;-55
2023/02/06 02:18:19;;;;;;;8.83;5.33;;;;;;;-5.47;66.10;99783.56;7506776;23;20237;-57
2023/02/06 02:21:54;;;;;;;10.83;5.17;;;;;;;-5.71;66.08;99767.66;7504085;23;20298;-58
2023/02/06 02:24:56;;;;;;;9.27;5.40;;;;;;;-5.57;66.59;99783.25;7506412;23;20603;-57
2023/02/06 02:28:13;;;;;;;7.27;4.83;;;;;;;-5.57;66.34;99782.41;7505240;23;20222;-56
2023/02/06 02:32:04;;;;;;;7.73;5.13;;;;;;;-5.54;66.49;99775.28;7503916;23;20219;-59
2023/02/06 02:35:29;;;;;;;10.20;4.77;;;;;;;-5.54;66.06;99764.06;7494488;23;20226;-57
2023/02/06 02:38:58;;;;;;;8.23;5.80;;;;;;;-5.52;65.86;99762.22;7507748;23;20286;-59
2023/02/06 02:42:17;;;;;;;8.30;5.07;;;;;;;-5.57;65.98;99759.88;7503578;23;20257;-57
2023/02/06 02:45:51;;;;;;;8.30;4.30;;;;;;;-5.52;65.98;99752.66;7504604;23;20314;-58
2023/02/06 02:48:59;;;;;;;8.27;5.17;;;;;;;-5.51;65.82;99764.75;7479319;23;20229;-58
2023/02/06 02:52:02;;;;;;;9.93;5.57;;;;;;;-5.48;65.61;99755.91;7506062;23;20210;-57
2023/02/06 02:55:16;;;;;;;10.20;5.23;;;;;;;-5.47;65.62;99753.25;7505821;23;20641;-57
2023/02/06 02:58:25;;;;;;;9.13;5.40;;;;;;;-5.53;65.21;99743.22;7503815;23;20211;-59
2023/02/06 03:01:45;;;;;;;7.03;4.27;;;;;;;-5.49;65.68;99760.28;7505908;23;20221;-58
2023/02/06 03:04:59;;;;;;;8.77;5.30;;;;;;;-5.83;65.34;99717.25;7504028;23;20691;-57
2023/02/06 03:08:09;;;;;;;11.83;5.57;;;;;;;-5.56;65.76;99768.53;7503718;23;20307;-55
2023/02/06 03:11:15;;;;;;;8.37;5.20;;;;;;;-5.56;65.68;99761.56;7503540;23;20607;-57
2023/02/06 03:14:33;;;;;;;8.37;4.93;;;;;;;-5.48;65.71;99774.94;7507382;23;20241;-58
2023/02/06 03:18:11;;;;;;;9.80;5.63;;;;;;;-5.43;65.55;99777.25;7504762;23;20225;-58
2023/02/06 03:21:18;;;;;;;9.17;5.30;;;;;;;-5.38;65.07;99777.84;7467305;23;20343;-58
2023/02/06 03:24:24;;;;;;;9.03;5.17;;;;;;;-5.38;65.37;99787.38;7465680;23;20184;-58
2023/02/06 03:27:28;;;;;;;9.33;5.80;;;;;;;-5.38;65.34;99782.19;7465602;23;20676;-57
2023/02/06 03:30:32;;;;;;;8.93;5.60;;;;;;;-5.39;65.14;99764.94;7466805;23;20211;-57
2023/02/06 03:33:48;;;;;;;8.97;5.37;;;;;;;-5.36;64.93;99768.22;7466430;23;20214;-57
2023/02/06 03:36:51;;;;;;;6.77;4.57;;;;;;;-5.30;64.99;99770.44;7466300;23;20542;-58
2023/02/06 03:39:56;;;;;;;9.60;5.33;;;;;;;-5.31;64.31;99773.97;7465310;23;20215;-59
2023/02/06 03:43:02;;;;;;;8.57;5.20;;;;;;;-5.33;65.29;99781.00;7466828;23;20670;-59
2023/02/06 03:46:05;;;;;;;8.80;5.00;;;;;;;-5.29;64.78;99772.09;7468711;23;20231;-58
2023/02/06 03:49:11;;;;;;;7.67;4.80;;;;;;;-5.27;64.79;99772.00;7466232;23;20280;-58
2023/02/06 03:52:18;;;;;;;10.53;5.00;;;;;;;-5.38;64.57;99745.84;7466572;23;20274;-59
2023/02/06 03:55:22;;;;;;;9.43;5.13;;;;;;;-5.22;64.53;99764.81;7470158;23;20696;-60
2023/02/06 03:58:24;;;;;;;8.73;4.43;;;;;;;-5.19;64.54;99770.63;7508867;23;20602;-56
2023/02/06 04:01:27;;;;;;;7.73;5.40;;;;;;;-5.11;64.63;99777.16;7509929;23;20756;-60
2023/02/06 04:04:34;;;;;;;8.03;5.03;;;;;;;-5.04;64.26;99768.88;7509448;23;20309;-57
2023/02/06 04:07:36;;;;;;;9.17;5.40;;;;;;;-4.99;64.42;99766.84;7508031;23;20222;-58
2023/02/06 04:10:38;;;;;;;7.43;4.93;;;;;;;-4.94;64.19;99763.97;7507337;23;20221;-58
2023/02/06 04:13:40;;;;;;;7.50;4.90;;;;;;;-4.95;63.67;99765.75;7510101;23;20293;-57
2023/02/06 04:16:42;;;;;;;7.17;5.03;;;;;;;-4.94;63.76;99759.59;7508933;23;20214;-58
2023/02/06 04:19:44;;;;;;;8.67;5.20;;;;;;;-5.13;64.03;99746.03;7507880;23;20225;-58
2023/02/06 04:22:46;;;;;;;7.90;5.10;;;;;;;-4.94;64.03;99766.56;7508491;23;20210;-59
2023/02/06 04:25:48;;;;;;;8.73;5.40;;;;;;;-4.99;63.94;99759.06;7507356;23;20214;-58
2023/02/06 04:28:50;;;;;;;11.20;5.60;;;;;;;-5.02;63.98;99755.81;7506777;23;20221;-58
2023/02/06 04:31:52;;;;;;;9.00;5.40;;;;;;;-5.27;64.10;99722.66;7505624;23;20272;-53
2023/02/06 04:34:54;;;;;;;8.70;5.67;;;;;;;-5.05;63.96;99763.78;7505995;23;20294;-58
2023/02/06 04:37:56;;;;;;;9.73;5.23;;;;;;;-5.06;63.76;99767.31;7507694;23;20226;-58
2023/02/06 04:41:04;;;;;;;9.57;6.00;;;;;;;-5.09;63.56;99770.09;7507387;23;20266;-58
2023/02/06 04:44:06;;;;;;;9.20;5.43;;;;;;;-5.15;63.92;99775.66;7508752;23;20282;-56
2023/02/06 04:47:08;;;;;;;9.23;6.33;;;;;;;-5.27;64.10;99770.28;7506847;23;20218;-57
2023/02/06 04:50:10;;;;;;;9.03;5.83;;;;;;;-5.18;63.88;99769.69;7507182;23;20262;-59
2023/02/06 04:53:12;;;;;;;9.97;5.40;;;;;;;-5.15;63.99;99753.09;7507402;23;20755;-59
2023/02/06 04:56:15;;;;;;;7.93;5.00;;;;;;;-5.09;64.05;99746.72;7507981;23;20298;-57
2023/02/06 04:59:17;;;;;;;6.87;4.93;;;;;;;-5.06;63.83;99749.97;7507300;23;20500;-58
2023/02/06 05:02:19;;;;;;;8.93;5.60;;;;;;;-5.04;63.66;99750.69;7506973;23;20214;-58
2023/02/06 05:05:21;;;;;;;7.73;5.20;;;;;;;-5.29;63.61;99696.78;7506800;23;20218;-58
2023/02/06 05:08:23;;;;;;;9.33;5.77;;;;;;;-4.99;63.62;99732.22;7506814;23;20218;-59
2023/02/06 05:11:25;;;;;;;7.57;5.33;;;;;;;-4.91;63.41;99740.41;7507738;23;20210;-59
2023/02/06 05:14:27;;;;;;;9.13;5.60;;;;;;;-4.90;63.75;99733.44;7509081;23;20261;-57
2023/02/06 05:17:29;;;;;;;8.30;5.27;;;;;;;-4.99;63.21;99721.84;7507021;23;20241;-59
2023/02/06 05:20:31;;;;;;;10.73;5.70;;;;;;;-4.90;62.94;99730.84;7507968;23;20215;-58
2023/02/06 05:23:33;;;;;;;8.90;5.27;;;;;;;-4.93;62.90;99732.72;7507990;23;20221;-54
2023/02/06 05:26:35;;;;;;;7.10;4.73;;;;;;;-4.88;63.27;99742.81;7508872;23;20214;-59
2023/02/06 05:29:37;;;;;;;9.03;5.17;;;;;;;-4.96;62.75;99725.09;7505774;23;20300;-57
2023/02/06 05:32:40;;;;;;;8.43;4.70;;;;;;;-4.81;63.29;99741.53;7507689;23;20690;-59
2023/02/06 05:35:42;;;;;;;8.93;5.07;;;;;;;-4.76;63.05;99728.25;7508368;23;20689;-58
2023/02/06 05:38:44;;;;;;;7.40;4.87;;;;;;;-4.74;63.69;99734.16;7506053;23;20214;-59
2023/02/06 05:41:46;;;;;;;7.67;5.03;;;;;;;-4.70;63.39;99733.06;7507394;23;20587;-59
2023/02/06 05:44:48;;;;;;;8.93;5.90;;;;;;;-4.63;62.22;99726.56;7505983;23;20218;-57
2023/02/06 05:47:52;;;;;;;8.43;5.00;;;;;;;-4.54;61.92;99719.94;7506589;23;20250;-57
2023/02/06 05:50:54;;;;;;;8.40;4.87;;;;;;;-4.53;62.08;99722.47;7506417;23;20211;-59
2023/02/06 05:53:56;;;;;;;9.43;5.10;;;;;;;-4.54;62.41;99728.56;7505387;23;20293;-59
2023/02/06 05:56:58;;;;;;;9.33;4.97;;;;;;;-4.63;62.33;99716.16;7507111;23;20238;-58
2023/02/06 06:00:01;;;;;;;12.17;5.57;;;;;;;-4.68;62.45;99725.97;7504235;23;20245;-54
2023/02/06 06:03:12;;;;;;;9.20;5.10;;;;;;;-4.79;62.54;99728.41;7506686;23;20183;-58
2023/02/06 06:06:14;;;;;;;7.67;5.43;;;;;;;-4.84;62.45;99722.66;7506693;23;20179;-57
2023/02/06 06:09:16;;;;;;;11.13;5.57;;;;;;;-4.90;62.39;99728.25;7506542;23;20511;-59
2023/02/06 06:12:18;;;;;;;7.93;5.00;;;;;;;-4.94;62.29;99731.03;7506627;23;20278;-57
2023/02/06 06:15:20;;;;;;;11.03;5.43;;;;;;;-4.95;62.48;99734.56;7506202;23;20186;-59
2023/02/06 06:18:22;;;;;;;11.10;5.17;;;;;;;-5.01;62.49;99742.72;7507156;23;20214;-57
2023/02/06 06:21:24;;;;;;;9.93;5.77;;;;;;;-5.34;62.77;99677.19;7506035;23;20210;-59
2023/02/06 06:24:26;;;;;;;10.03;5.93;;;;;;;-5.24;62.34;99717.28;7507720;23;20222;-58
2023/02/06 06:27:28;;;;;;;8.40;5.40;;;;;;;-5.09;62.41;99737.16;7503618;23;20215;-59
2023/02/06 06:30:30;;;;;;;9.40;5.57;;;;;;;-5.11;62.56;99733.81;7506279;23;20261;-57
2023/02/06 06:33:34;;;;;;;10.73;6.13;;;;;;;-5.10;62.62;99738.09;7507484;23;20289;-55
2023/02/06 06:36:36;;;;;;;8.80;4.63;;;;;;;-5.06;62.75;99725.75;7506011;23;20293;-57
2023/02/06 06:39:38;;;;;;;10.53;6.10;;;;;;;-5.09;62.72;99721.56;7507522;23;20213;-59
2023/02/06 06:42:40;;;;;;;11.87;5.53;;;;;;;-5.04;63.08;99716.91;7506568;23;20229;-57
2023/02/06 06:45:42;;;;;;;7.40;4.60;;;;;;;-4.95;63.21;99708.56;7506050;23;20732;-57
2023/02/06 06:48:44;;;;;;;9.60;5.73;;;;;;;-4.94;63.75;99707.63;7506601;23;20455;-60
2023/02/06 06:51:46;;;;;;;8.67;5.07;;;;;;;-4.81;63.53;99696.50;7505935;23;20261;-59
2023/02/06 06:54:48;;;;;;;8.10;5.40;;;;;;;-4.64;63.36;99696.25;7507523;23;20285;-58
2023/02/06 06:57:53;;;;;;;8.60;5.17;;;;;;;-4.65;62.84;99679.00;7506835;23;20203;-59
2023/02/06 07:00:55;;;;;;;8.03;4.97;;;;;;;-4.44;62.58;99706.25;7506550;23;20210;-57
2023/02/06 07:03:59;;;;;;;7.73;5.10;;;;;;;-4.37;62.00;99708.47;7507508;23;20276;-58
2023/02/06 07:07:01;;;;;;;8.80;4.73;;;;;;;-4.33;61.74;99697.78;7504401;23;20563;-58
2023/02/06 07:10:03;;;;;;;9.97;5.27;;;;;;;-4.44;61.78;99672.44;7506470;23;20544;-57
2023/02/06 07:13:05;;;;;;;7.53;4.77;;;;;;;-4.25;61.04;99707.69;7505689;23;20596;-59
2023/02/06 07:16:07;;;;;;;6.67;4.63;;;;;;;-4.28;61.26;99700.94;7506742;23;20211;-56
2023/02/06 07:19:10;;;;;;;7.20;5.63;;;;;;;-4.26;61.68;99703.44;7506138;23;20541;-59
2023/02/06 07:22:12;;;;;;;8.30;4.97;;;;;;;-4.22;61.52;99707.50;7505227;23;20657;-59
2023/02/06 07:25:14;;;;;;;8.10;4.97;;;;;;;-4.13;60.52;99709.53;7506671;23;20221;-58
2023/02/06 07:28:16;;;;;;;7.20;4.23;;;;;;;-4.04;59.49;99714.13;7505559;23;20259;-56
2023/02/06 07:31:18;;;;;;;10.93;5.00;;;;;;;-3.89;58.73;99714.91;7507945;23;20220;-59
2023/02/06 07:34:21;;;;;;;6.67;4.60;;;;;;;-3.74;58.30;99713.91;7508930;23;20237;-59
2023/02/06 07:37:22;;;;;;;6.67;4.60;;;;;;;-3.59;56.88;99709.44;7508157;23;20301;-58
2023/02/06 07:40:25;;;;;;;7.67;4.50;;;;;;;-3.38;56.02;99717.59;7508610;23;20616;-58
2023/02/06 07:43:34;;;;;;;8.60;5.23;;;;;;;-3.36;55.89;99715.72;7507919;23;20649;-57
2023/02/06 07:46:36;;;;;;;7.10;4.70;;;;;;;-3.24;55.38;99719.28;7507512;23;20746;-58
2023/02/06 07:49:38;;;;;;;8.37;5.13;;;;;;;-3.46;55.40;99692.03;7509746;23;20210;-57
2023/02/06 07:52:40;;;;;;;9.50;5.60;;;;;;;-3.39;55.85;99695.09;7506938;23;20622;-57
2023/02/06 07:55:42;;;;;;;7.90;4.80;;;;;;;-3.22;55.81;99733.03;7482747;23;20238;-58
2023/02/06 07:58:50;;;;;;;7.80;5.33;;;;;;;-3.22;55.92;99731.25;7508205;23;20574;-57
2023/02/06 08:01:52;;;;;;;9.97;5.43;;;;;;;-3.16;55.82;99722.19;7508309;23;20298;-58
2023/02/06 08:04:54;;;;;;;9.13;5.23;;;;;;;-3.10;55.82;99727.00;7508369;23;20297;-59
2023/02/06 08:07:56;;;;;;;8.40;5.47;;;;;;;-2.99;55.70;99721.03;7507018;23;20625;-58
2023/02/06 08:10:58;;;;;;;8.23;5.10;;;;;;;-2.85;55.77;99726.16;7508364;23;20220;-59
2023/02/06 08:14:01;;;;;;;8.27;4.93;;;;;;;-2.78;55.18;99723.94;7507742;23;20325;-59
2023/02/06 08:17:03;;;;;;;9.80;6.20;;;;;;;-2.82;55.08;99710.25;7509722;23;20590;-59
2023/02/06 08:20:06;;;;;;;10.37;5.30;;;;;;;-2.69;55.10;99718.09;7507991;23;20218;-58
2023/02/06 08:23:08;;;;;;;9.23;6.30;;;;;;;-2.69;55.31;99716.31;7508190;23;20278;-58
2023/02/06 08:26:16;;;;;;;9.00;5.60;;;;;;;-2.73;55.49;99717.44;7509916;23;20641;-58
2023/02/06 08:29:18;;;;;;;7.90;5.97;;;;;;;-2.86;55.54;99685.34;7511350;23;20293;-59
2023/02/06 08:32:20;;;;;;;8.10;5.73;;;;;;;-2.65;55.20;99719.53;7508158;23;20218;-54
2023/02/06 08:35:22;;;;;;;10.77;5.93;;;;;;;-2.65;55.40;99722.97;7508429;23;20293;-58
2023/02/06 08:38:24;;;;;;;11.00;5.83;;;;;;;-2.46;55.22;99722.53;7515297;23;20214;-54
2023/02/06 08:41:47;;;;;;;10.50;6.47;;;;;;;-2.25;55.37;99721.94;7508789;23;20280;-56
2023/02/06 08:44:49;;;;;;;9.60;6.07;;;;;;;-2.07;54.50;99720.56;7507628;23;20215;-57
2023/02/06 08:47:51;;;;;;;10.47;7.03;;;;;;;-2.02;54.07;99722.84;7508924;23;20297;-56
2023/02/06 08:51:04;;;;;;;9.33;6.23;;;;;;;-1.76;53.99;99723.59;7506964;23;20218;-54
2023/02/06 08:54:10;;;;;;;8.80;5.70;;;;;;;-1.64;53.07;99714.81;7507356;23;20310;-58
2023/02/06 08:57:12;;;;;;;10.70;6.60;;;;;;;-1.41;52.86;99734.84;7508711;23;20206;-57
2023/02/06 09:00:16;;;;;;;8.97;6.40;;;;;;;-1.36;51.74;99735.34;7507681;23;20182;-58
2023/02/06 09:03:20;;;;;;;10.20;6.00;;;;;;;-1.40;51.65;99722.63;7507527;23;20261;-57
2023/02/06 09:06:24;;;;;;;10.00;6.53;;;;;;;-1.45;52.27;99724.75;7507399;23;20272;-58
2023/02/06 09:09:26;;;;;;;9.87;5.97;;;;;;;-1.38;51.89;99744.25;7507865;23;20660;-57
2023/02/06 09:12:28;;;;;;;10.53;6.37;;;;;;;-1.44;52.20;99729.84;7507247;23;20216;-55
2023/02/06 09:15:30;;;;;;;8.40;6.07;;;;;;;-1.24;51.79;99735.34;7505700;23;20238;-57
2023/02/06 09:18:33;;;;;;;8.80;5.80;;;;;;;-1.19;51.64;99743.69;7507775;23;20212;-55
2023/02/06 09:21:36;;;;;;;14.20;6.30;;;;;;;-1.51;51.83;99743.50;7507632;23;20206;-59
2023/02/06 09:24:38;;;;;;;10.37;6.47;;;;;;;-1.54;52.05;99743.72;7506802;23;20216;-57
2023/02/06 09:27:40;;;;;;;9.53;6.63;;;;;;;-1.32;51.14;99746.41;7505819;23;20218;-59
2023/02/06 09:30:42;;;;;;;10.47;5.80;;;;;;;-1.22;51.87;99746.56;7506792;23;20274;-57
2023/02/06 09:33:44;;;;;;;9.60;5.80;;;;;;;-1.13;51.06;99749.31;7510145;23;20663;-57
2023/02/06 09:36:46;;;;;;;7.73;5.73;;;;;;;-1.06;51.59;99752.28;7507867;23;20596;-58
2023/02/06 09:39:48;;;;;;;8.83;5.90;;;;;;;-1.25;52.15;99747.59;7507131;23;20527;-58
2023/02/06 09:42:52;;;;;;;12.00;6.50;;;;;;;-1.36;51.43;99750.19;7505865;23;20214;-58
2023/02/06 09:45:59;;;;;;;9.13;5.50;;;;;;;-1.20;50.56;99752.50;7506093;23;20222;-57
2023/02/06 09:49:15;;;;;;;8.60;6.23;;;;;;;-1.61;51.38;99741.56;7506410;23;20222;-58
2023/02/06 09:52:40;;;;;;;9.90;5.90;;;;;;;-1.42;51.67;99742.81;7505918;23;20226;-57
2023/02/06 09:55:53;;;;;;;8.37;5.50;;;;;;;-0.87;50.76;99728.16;7505213;23;20210;-59
2023/02/06 09:59:09;;;;;;;12.83;5.63;;;;;;;0.20;48.69;99730.97;7506799;23;20341;-58
2023/02/06 10:02:49;;;;;;;9.27;6.07;;;;;;;0.65;46.52;99722.03;7514986;23;20289;-57
2023/02/06 10:06:12;;;;;;;10.97;6.03;;;;;;;0.71;45.91;99714.47;7506362;23;20600;-56
2023/02/06 10:09:20;;;;;;;9.13;6.20;;;;;;;0.44;46.42;99711.53;7505486;23;20272;-56
2023/02/06 10:12:29;;;;;;;10.60;6.03;;;;;;;0.57;45.57;99706.94;7506627;23;20655;-56
2023/02/06 10:15:39;;;;;;;10.43;6.33;;;;;;;0.55;45.42;99695.75;7506603;23;20324;-55
2023/02/06 10:18:47;;;;;;;8.67;5.67;;;;;;;1.23;44.11;99668.06;7507087;23;20220;-56
2023/02/06 10:22:00;;;;;;;9.23;5.70;;;;;;;3.24;40.38;99684.00;7506789;23;20238;-58
2023/02/06 10:25:17;;;;;;;8.83;6.00;;;;;;;3.31;39.40;99683.28;7506561;23;20622;-58
2023/02/06 10:28:28;;;;;;;9.37;6.27;;;;;;;2.73;40.63;99687.91;7503500;23;20325;-57
2023/02/06 10:31:52;;;;;;;8.40;5.50;;;;;;;2.73;40.47;99672.13;7512438;23;20218;-55
2023/02/06 10:35:28;;;;;;;8.83;5.63;;;;;;;2.55;41.49;99674.66;7506107;23;20219;-57
2023/02/06 10:38:42;;;;;;;9.13;6.20;;;;;;;2.33;41.03;99657.38;7506636;23;20211;-58
2023/02/06 10:42:18;;;;;;;8.30;6.00;;;;;;;1.84;42.06;99651.31;7505143;23;20214;-56
2023/02/06 10:45:38;;;;;;;7.70;5.20;;;;;;;1.81;42.48;99644.50;7506275;23;20269;-55
2023/02/06 10:48:47;;;;;;;8.73;6.07;;;;;;;1.62;42.61;99641.88;7506011;23;20211;-58
2023/02/06 10:51:57;;;;;;;9.23;5.83;;;;;;;1.26;43.93;99638.06;7508288;23;20206;-57
2023/02/06 10:55:22;;;;;;;8.57;5.60;;;;;;;1.13;45.40;99633.03;7483290;23;20302;-57
2023/02/06 10:58:29;;;;;;;7.37;5.40;;;;;;;1.48;44.04;99634.41;7507522;23;20211;-57
2023/02/06 11:01:37;;;;;;;9.70;5.67;;;;;;;1.49;44.40;99630.81;7507407;23;20226;-57
2023/02/06 11:04:46;;;;;;;7.97;4.53;;;;;;;1.21;43.76;99624.50;7506466;23;20857;-57
2023/02/06 11:07:52;;;;;;;8.30;5.40;;;;;;;0.69;44.67;99615.88;7507766;23;20293;-56
2023/02/06 11:10:55;;;;;;;6.77;5.13;;;;;;;0.49;45.35;99615.81;7508633;23;20281;-55
2023/02/06 11:14:19;;;;;;;10.43;6.13;;;;;;;0.48;45.47;99623.78;7508984;23;20686;-53
2023/02/06 11:17:23;;;;;;;8.10;5.20;;;;;;;0.39;46.21;99614.06;7507065;23;20286;-58
2023/02/06 11:20:29;;;;;;;7.93;4.80;;;;;;;-0.03;46.17;99577.41;7507955;23;20214;-56
2023/02/06 11:23:33;;;;;;;8.50;5.07;;;;;;;0.14;46.47;99608.25;7509014;23;20210;-58
2023/02/06 11:26:45;;;;;;;7.10;5.17;;;;;;;0.01;46.50;99596.34;7507399;23;20211;-58
2023/02/06 11:29:49;;;;;;;8.33;5.17;;;;;;;0.05;46.74;99605.56;7507346;23;20245;-57
2023/02/06 11:33:00;;;;;;;6.83;4.50;;;;;;;0.31;46.59;99606.88;7508590;23;20224;-56
2023/02/06 11:36:21;;;;;;;8.57;5.27;;;;;;;0.40;46.56;99608.72;7508037;23;20203;-57
2023/02/06 11:39:41;;;;;;;8.10;4.83;;;;;;;0.66;45.46;99609.13;7509197;23;20573;-57
2023/02/06 11:42:44;;;;;;;7.87;5.27;;;;;;;0.74;45.52;99613.72;7507540;23;20215;-59
2023/02/06 11:45:50;;;;;;;7.47;4.63;;;;;;;0.94;45.10;99607.59;7509626;23;20271;-58
2023/02/06 11:48:57;;;;;;;6.40;5.17;;;;;;;1.02;44.63;99599.88;7507716;23;20218;-57
2023/02/06 11:52:00;;;;;;;8.90;5.33;;;;;;;1.19;45.08;99592.34;7509113;23;20222;-58
2023/02/06 11:55:03;;;;;;;9.13;5.27;;;;;;;1.36;43.93;99598.72;7509038;23;20696;-59
2023/02/06 11:58:11;;;;;;;8.63;5.27;;;;;;;1.46;42.13;99596.94;7510479;23;20263;-59
2023/02/06 12:01:19;;;;;;;8.57;6.00;;;;;;;1.35;43.46;99539.28;7512764;23;20261;-56
2023/02/06 12:04:34;;;;;;;10.07;4.63;;;;;;;1.60;42.42;99575.50;7507732;23;20271;-58
2023/02/06 12:08:01;;;;;;;7.43;5.00;;;;;;;1.72;42.99;99584.91;7508225;23;20226;-58
2023/02/06 12:11:09;;;;;;;5.30;4.57;;;;;;;1.60;42.23;99580.78;7509724;23;20410;-57
2023/02/06 12:14:34;;;;;;;6.43;4.57;;;;;;;1.52;42.43;99546.47;7508044;23;20215;-57
2023/02/06 12:17:41;;;;;;;7.60;4.80;;;;;;;1.76;42.82;99581.03;7507492;23;20457;-59
2023/02/06 12:20:48;;;;;;;7.33;4.70;;;;;;;1.92;42.83;99583.13;7509243;23;20688;-59
2023/02/06 12:23:59;;;;;;;8.70;5.03;;;;;;;1.89;42.25;99575.50;7508857;23;20215;-59
2023/02/06 12:27:16;;;;;;;7.43;5.23;;;;;;;1.81;42.23;99564.84;7507636;23;20260;-54
2023/02/06 12:30:30;;;;;;;7.57;5.37;;;;;;;1.73;42.56;99567.38;7507591;23;20584;-58
2023/02/06 12:33:39;;;;;;;7.23;5.00;;;;;;;1.72;42.43;99568.31;7506942;23;20215;-53
2023/02/06 12:37:20;;;;;;;8.07;5.43;;;;;;;1.38;43.43;99575.75;7508933;23;20295;-57
2023/02/06 12:40:39;;;;;;;8.53;5.37;;;;;;;0.99;45.00;99566.03;7506694;23;20226;-58
2023/02/06 12:43:45;;;;;;;8.43;5.90;;;;;;;0.76;44.06;99556.72;7508893;23;20247;-57
2023/02/06 12:46:56;;;;;;;6.63;4.47;;;;;;;1.03;44.59;99549.06;7506666;23;20237;-60
2023/02/06 12:50:14;;;;;;;10.13;5.50;;;;;;;1.03;44.65;99541.19;7508200;23;20377;-59
2023/02/06 12:53:43;;;;;;;6.43;4.70;;;;;;;0.90;44.05;99513.53;7507011;23;20301;-59
2023/02/06 12:56:58;;;;;;;8.90;5.17;;;;;;;1.20;44.83;99541.50;7507903;23;20358;-57
2023/02/06 13:00:26;;;;;;;6.60;4.27;;;;;;;1.32;43.98;99543.00;7507909;23;20611;-60
2023/02/06 13:03:33;;;;;;;7.73;4.43;;;;;;;1.23;44.11;99536.81;7507915;23;20281;-57
2023/02/06 13:06:46;;;;;;;5.80;4.63;;;;;;;1.31;43.49;99530.84;7507333;23;20668;-56
2023/02/06 13:09:58;;;;;;;6.20;4.53;;;;;;;1.40;42.97;99527.41;7508992;23;20292;-57
2023/02/06 13:13:00;;;;;;;7.00;4.97;;;;;;;1.39;43.01;99528.38;7507535;23;20646;-58
2023/02/06 13:16:04;;;;;;;6.57;4.77;;;;;;;1.40;42.67;99521.34;7507065;23;20291;-53
2023/02/06 13:19:20;;;;;;;7.57;5.33;;;;;;;1.19;43.29;99529.34;7506246;23;20206;-60
2023/02/06 13:23:02;;;;;;;6.77;4.87;;;;;;;1.11;43.31;99522.13;7505602;23;20298;-58
2023/02/06 13:26:04;;;;;;;8.03;5.20;;;;;;;0.69;43.68;99514.44;7500128;23;20295;-58
2023/02/06 13:29:26;;;;;;;7.67;5.13;;;;;;;0.45;44.31;99513.94;7505761;23;20696;-59
2023/02/06 13:32:30;;;;;;;7.87;5.07;;;;;;;0.01;44.94;99486.31;7506105;23;20294;-59
2023/02/06 13:35:33;;;;;;;6.50;4.30;;;;;;;0.22;45.49;99498.41;7505296;23;20216;-58
2023/02/06 13:38:37;;;;;;;7.70;5.10;;;;;;;0.38;44.77;99518.88;7505894;23;20289;-60
2023/02/06 13:41:41;;;;;;;7.20;4.40;;;;;;;0.49;43.75;99508.31;7506479;23;20215;-57
2023/02/06 13:44:43;;;;;;;6.47;4.60;;;;;;;0.67;43.97;99518.16;7507306;23;20265;-59
2023/02/06 13:48:04;;;;;;;7.13;4.40;;;;;;;0.58;42.45;99521.56;7506640;23;20219;-59
2023/02/06 13:51:40;;;;;;;8.30;4.67;;;;;;;0.61;43.08;99522.16;7506571;23;20254;-58
2023/02/06 13:54:58;;;;;;;7.87;4.77;;;;;;;0.46;43.55;99513.00;7506265;23;20306;-59
2023/02/06 13:58:35;;;;;;;6.63;4.40;;;;;;;0.47;43.51;99518.09;7507340;23;20583;-57
2023/02/06 14:01:39;;;;;;;7.17;4.63;;;;;;;0.36;44.37;99499.00;7507859;23;20667;-58
2023/02/06 14:04:44;;;;;;;8.03;5.53;;;;;;;0.52;44.33;99521.16;7507171;23;20289;-58
2023/02/06 14:07:53;;;;;;;6.30;4.20;;;;;;;0.35;45.04;99510.47;7506148;23;20297;-58
2023/02/06 14:14:59;;;;;;;8.67;4.70;;;;;;;0.21;45.14;99517.72;7508156;23;20732;-59
2023/02/06 14:18:35;;;;;;;6.17;4.43;;;;;;;0.06;46.02;99515.56;7505131;23;20691;-57
2023/02/06 14:22:06;;;;;;;8.97;5.33;;;;;;;-0.19;47.15;99524.66;7506591;23;20217;-56
2023/02/06 14:25:27;;;;;;;6.87;4.60;;;;;;;-0.27;47.32;99518.25;7506373;23;20206;-59
2023/02/06 14:28:46;;;;;;;6.47;4.17;;;;;;;-0.12;47.56;99518.75;7512063;23;20229;-59
2023/02/06 14:32:09;;;;;;;7.37;4.60;;;;;;;-0.08;47.15;99529.81;7506850;23;20218;-58
2023/02/06 14:35:29;;;;;;;5.60;4.17;;;;;;;0.05;46.89;99533.06;7505486;23;20218;-56
2023/02/06 14:38:50;;;;;;;5.53;4.40;;;;;;;0.12;47.62;99546.47;7503715;23;20293;-59
2023/02/06 14:41:52;;;;;;;8.13;5.03;;;;;;;0.21;47.12;99551.78;7506240;23;20274;-59
2023/02/06 14:45:00;;;;;;;10.00;4.40;;;;;;;-0.21;46.63;99503.81;7506255;23;20214;-59
2023/02/06 14:48:05;;;;;;;7.30;4.67;;;;;;;-0.02;46.94;99547.63;7505600;23;20218;-56